createdAt,value
2023-01-29T00:00:04.017Z,5.90
2023-01-29T00:02:40.594Z,6.05
2023-01-29T00:05:26.639Z,6.40
2023-01-29T00:07:55.764Z,5.47
2023-01-29T00:10:24.040Z,5.50
2023-01-29T00:12:53.052Z,5.15
2023-01-29T00:15:21.495Z,4.88
2023-01-29T00:17:49.428Z,6.00
2023-01-29T00:20:19.358Z,5.20
2023-01-29T00:22:47.479Z,6.03
2023-01-29T00:25:15.488Z,4.93
2023-01-29T00:27:46.407Z,6.03
2023-01-29T00:30:16.490Z,5.95
2023-01-29T00:32:44.912Z,5.43
2023-01-29T00:35:15.823Z,5.80
2023-01-29T00:37:45.106Z,6.55
2023-01-29T00:40:13.815Z,5.07
2023-01-29T00:42:59.719Z,6.65
2023-01-29T00:45:27.779Z,5.60
2023-01-29T00:47:55.779Z,6.45
2023-01-29T00:50:23.910Z,6.00
2023-01-29T00:52:54.621Z,5.93
2023-01-29T00:55:23.032Z,6.75
2023-01-29T00:57:54.033Z,4.93
2023-01-29T01:00:22.375Z,5.22
2023-01-29T01:03:07.593Z,6.60
2023-01-29T01:05:36.759Z,5.25
2023-01-29T01:08:27.624Z,6.88
2023-01-29T01:11:02.416Z,4.88
2023-01-29T01:13:33.451Z,6.05
2023-01-29T01:16:01.644Z,6.28
2023-01-29T01:18:34.028Z,6.28
2023-01-29T01:21:01.927Z,5.57
2023-01-29T01:23:31.380Z,6.13
2023-01-29T01:25:59.771Z,5.85
2023-01-29T01:28:28.107Z,5.40
2023-01-29T01:30:56.199Z,5.50
2023-01-29T01:33:24.743Z,5.40
2023-01-29T01:35:52.738Z,5.10
2023-01-29T01:38:20.649Z,5.75
2023-01-29T01:40:49.970Z,5.75
2023-01-29T01:43:17.839Z,5.68
2023-01-29T01:45:48.652Z,6.20
2023-01-29T01:48:21.242Z,6.15
2023-01-29T01:50:55.213Z,6.18
2023-01-29T01:53:28.962Z,5.57
2023-01-29T01:56:02.115Z,5.68
2023-01-29T01:58:35.011Z,4.70
2023-01-29T02:01:05.370Z,6.30
2023-01-29T02:03:54.345Z,5.38
2023-01-29T02:06:40.167Z,6.78
2023-01-29T02:09:33.672Z,6.50
2023-01-29T02:12:08.762Z,6.40
2023-01-29T02:14:40.397Z,5.38
2023-01-29T02:17:12.012Z,5.57
2023-01-29T02:19:49.147Z,5.05
2023-01-29T02:22:47.331Z,5.65
2023-01-29T02:25:49.642Z,5.10
2023-01-29T02:28:27.285Z,6.45
2023-01-29T02:31:05.864Z,5.35
2023-01-29T02:33:42.892Z,5.88
2023-01-29T02:36:20.669Z,5.53
2023-01-29T02:38:58.457Z,5.65
2023-01-29T02:41:36.106Z,4.82
2023-01-29T02:44:13.820Z,5.05
2023-01-29T02:46:50.972Z,5.78
2023-01-29T02:49:25.816Z,5.25
2023-01-29T02:52:04.313Z,4.90
2023-01-29T02:54:40.965Z,5.05
2023-01-29T02:57:16.255Z,5.40
2023-01-29T02:59:50.590Z,4.75
2023-01-29T03:02:25.018Z,5.05
2023-01-29T03:04:59.441Z,5.13
2023-01-29T03:07:45.877Z,5.30
2023-01-29T03:10:29.032Z,5.82
2023-01-29T03:13:01.703Z,4.97
2023-01-29T03:15:39.082Z,5.28
2023-01-29T03:18:41.319Z,5.85
2023-01-29T03:21:28.004Z,5.75
2023-01-29T03:24:17.337Z,6.07
2023-01-29T03:27:03.659Z,5.03
2023-01-29T03:29:56.911Z,5.88
2023-01-29T03:32:32.573Z,5.43
2023-01-29T03:35:05.572Z,5.50
2023-01-29T03:37:40.093Z,5.18
2023-01-29T03:42:50.329Z,5.63
2023-01-29T03:45:27.009Z,5.38
2023-01-29T03:48:06.079Z,5.75
2023-01-29T03:50:41.324Z,6.38
2023-01-29T03:53:18.244Z,5.60
2023-01-29T03:55:55.932Z,5.88
2023-01-29T03:58:31.576Z,6.18
2023-01-29T04:01:04.501Z,6.80
2023-01-29T04:03:36.440Z,6.10
2023-01-29T04:08:53.437Z,6.68
2023-01-29T04:11:23.989Z,6.22
2023-01-29T04:13:53.249Z,5.90
2023-01-29T04:16:25.835Z,5.05
2023-01-29T04:19:27.322Z,5.18
2023-01-29T04:22:04.830Z,5.70
2023-01-29T04:24:33.481Z,6.15
2023-01-29T04:27:14.207Z,6.60
2023-01-29T04:29:58.883Z,6.00
2023-01-29T04:32:32.922Z,6.18
2023-01-29T04:37:41.421Z,5.68
2023-01-29T04:40:19.571Z,4.93
2023-01-29T04:43:00.547Z,5.35
2023-01-29T04:45:37.859Z,5.35
2023-01-29T04:48:20.121Z,4.72
2023-01-29T04:50:57.291Z,6.00
2023-01-29T04:53:34.105Z,5.43
2023-01-29T04:56:09.618Z,5.22
2023-01-29T04:58:41.715Z,4.53
2023-01-29T05:01:15.086Z,5.90
2023-01-29T05:03:47.824Z,4.45
2023-01-29T05:06:17.500Z,5.60
2023-01-29T05:08:47.065Z,5.13
2023-01-29T05:11:15.444Z,4.40
2023-01-29T05:13:44.331Z,5.47
2023-01-29T05:16:19.124Z,5.10
2023-01-29T05:18:47.983Z,5.05
2023-01-29T05:21:17.540Z,5.95
2023-01-29T05:23:53.192Z,4.78
2023-01-29T05:26:39.343Z,4.45
2023-01-29T05:29:07.530Z,4.45
2023-01-29T05:31:35.479Z,5.55
2023-01-29T05:34:03.465Z,6.10
2023-01-29T05:36:32.734Z,4.97
2023-01-29T05:39:00.702Z,4.85
2023-01-29T05:41:28.689Z,4.97
2023-01-29T05:43:56.644Z,4.72
2023-01-29T05:46:25.335Z,4.93
2023-01-29T05:48:53.923Z,3.67
2023-01-29T05:51:22.041Z,5.22
2023-01-29T05:53:51.351Z,5.25
2023-01-29T05:56:22.514Z,5.10
2023-01-29T05:58:50.833Z,5.22
2023-01-29T06:01:20.709Z,5.22
2023-01-29T06:03:49.222Z,5.60
2023-01-29T06:06:18.026Z,4.70
2023-01-29T06:08:45.908Z,5.72
2023-01-29T06:11:16.417Z,4.70
2023-01-29T06:13:44.431Z,5.13
2023-01-29T06:16:15.342Z,5.13
2023-01-29T06:18:43.355Z,5.47
2023-01-29T06:21:14.215Z,6.32
2023-01-29T06:23:42.437Z,5.47
2023-01-29T06:26:13.432Z,5.75
2023-01-29T06:28:45.126Z,5.22
2023-01-29T06:31:35.305Z,5.65
2023-01-29T06:34:01.277Z,6.00
2023-01-29T06:36:29.385Z,5.50
2023-01-29T06:38:57.340Z,6.15
2023-01-29T06:41:25.722Z,5.88
2023-01-29T06:43:55.245Z,5.35
2023-01-29T06:46:23.170Z,5.85
2023-01-29T06:48:51.181Z,6.43
2023-01-29T06:51:19.393Z,5.05
2023-01-29T06:53:47.515Z,6.45
2023-01-29T06:56:15.475Z,6.15
2023-01-29T06:58:44.086Z,6.50
2023-01-29T07:01:25.373Z,6.28
2023-01-29T07:04:01.248Z,7.28
2023-01-29T07:06:29.862Z,6.40
2023-01-29T07:09:00.221Z,5.70
2023-01-29T07:11:28.138Z,6.97
2023-01-29T07:13:56.061Z,7.53
2023-01-29T07:16:26.256Z,6.00
2023-01-29T07:18:54.604Z,7.07
2023-01-29T07:21:22.602Z,6.70
2023-01-29T07:23:50.749Z,9.27
2023-01-29T07:26:18.725Z,7.70
2023-01-29T07:28:51.316Z,8.15
2023-01-29T07:31:19.347Z,7.35
2023-01-29T07:33:48.693Z,8.23
2023-01-29T07:36:16.872Z,8.43
2023-01-29T07:38:44.735Z,7.68
2023-01-29T07:41:13.319Z,8.95
2023-01-29T07:43:43.820Z,8.18
2023-01-29T07:46:12.096Z,9.20
2023-01-29T07:48:40.069Z,8.30
2023-01-29T07:51:11.297Z,8.55
2023-01-29T07:53:39.564Z,8.65
2023-01-29T07:56:08.027Z,9.27
2023-01-29T07:58:36.866Z,8.45
2023-01-29T08:01:07.960Z,9.13
2023-01-29T08:03:36.006Z,8.55
2023-01-29T08:06:04.289Z,7.22
2023-01-29T08:08:33.771Z,7.75
2023-01-29T08:11:03.000Z,9.05
2023-01-29T08:13:32.363Z,7.45
2023-01-29T08:16:02.064Z,8.98
2023-01-29T08:18:31.508Z,9.57
2023-01-29T08:21:04.119Z,9.80
2023-01-29T08:23:33.517Z,8.57
2023-01-29T08:26:03.508Z,7.70
2023-01-29T08:28:31.732Z,9.30
2023-01-29T08:31:01.958Z,8.60
2023-01-29T08:33:38.369Z,8.65
2023-01-29T08:36:08.114Z,9.18
2023-01-29T08:38:38.052Z,9.10
2023-01-29T08:41:06.537Z,8.88
2023-01-29T08:43:35.252Z,8.82
2023-01-29T08:46:04.984Z,7.88
2023-01-29T08:48:33.784Z,8.43
2023-01-29T08:51:04.454Z,8.82
2023-01-29T08:53:32.722Z,11.05
2023-01-29T08:56:02.131Z,9.82
2023-01-29T08:58:30.256Z,9.15
2023-01-29T09:00:58.233Z,9.88
2023-01-29T09:03:26.323Z,9.60
2023-01-29T09:05:54.305Z,8.15
2023-01-29T09:08:22.257Z,9.52
2023-01-29T09:10:50.195Z,10.30
2023-01-29T09:13:19.507Z,9.15
2023-01-29T09:15:47.436Z,8.75
2023-01-29T09:18:17.508Z,7.78
2023-01-29T09:20:46.636Z,8.68
2023-01-29T09:23:18.372Z,10.27
2023-01-29T09:25:46.363Z,7.70
2023-01-29T09:28:14.380Z,8.77
2023-01-29T09:30:43.720Z,8.55
2023-01-29T09:33:11.796Z,8.05
2023-01-29T09:35:42.077Z,8.10
2023-01-29T09:38:10.166Z,7.45
2023-01-29T09:40:51.395Z,8.35
2023-01-29T09:43:21.906Z,8.30
2023-01-29T09:45:57.187Z,8.27
2023-01-29T09:48:28.759Z,9.65
2023-01-29T09:51:01.840Z,8.27
2023-01-29T09:53:36.286Z,8.90
2023-01-29T09:56:07.014Z,8.02
2023-01-29T09:58:37.598Z,7.10
2023-01-29T10:01:15.388Z,8.35
2023-01-29T10:03:56.589Z,8.80
2023-01-29T10:06:43.813Z,6.85
2023-01-29T10:09:57.304Z,7.25
2023-01-29T10:12:45.015Z,9.15
2023-01-29T10:15:26.261Z,8.27
2023-01-29T10:18:18.834Z,7.43
2023-01-29T10:21:00.208Z,8.32
2023-01-29T10:23:31.153Z,7.20
2023-01-29T10:26:00.189Z,8.18
2023-01-29T10:28:32.843Z,7.30
2023-01-29T10:31:03.319Z,8.20
2023-01-29T10:33:49.204Z,10.40
2023-01-29T10:36:29.700Z,7.65
2023-01-29T10:38:57.754Z,8.45
2023-01-29T10:41:37.496Z,8.50
2023-01-29T10:44:21.994Z,8.60
2023-01-29T10:47:04.380Z,7.22
2023-01-29T10:49:49.940Z,7.18
2023-01-29T10:52:34.754Z,7.20
2023-01-29T10:55:17.384Z,6.13
2023-01-29T10:57:59.554Z,6.25
2023-01-29T11:00:31.827Z,5.93
2023-01-29T11:03:26.405Z,7.97
2023-01-29T11:06:05.420Z,7.07
2023-01-29T11:08:41.446Z,7.40
2023-01-29T11:11:13.878Z,7.72
2023-01-29T11:13:45.781Z,7.05
2023-01-29T11:16:13.831Z,7.05
2023-01-29T11:18:57.115Z,7.93
2023-01-29T11:21:28.079Z,6.20
2023-01-29T11:24:12.900Z,5.75
2023-01-29T11:26:43.279Z,6.75
2023-01-29T11:29:35.580Z,8.07
2023-01-29T11:32:06.795Z,6.28
2023-01-29T11:34:34.858Z,5.88
2023-01-29T11:37:06.980Z,6.85
2023-01-29T11:39:34.847Z,8.15
2023-01-29T11:42:04.721Z,7.45
2023-01-29T11:44:34.196Z,6.97
2023-01-29T11:47:13.438Z,7.95
2023-01-29T11:49:46.317Z,6.57
2023-01-29T11:52:18.311Z,5.47
2023-01-29T11:54:48.826Z,5.82
2023-01-29T11:57:29.626Z,5.80
2023-01-29T12:00:00.832Z,7.05
2023-01-29T12:02:35.506Z,6.93
2023-01-29T12:05:07.615Z,6.93
2023-01-29T12:07:43.328Z,7.57
2023-01-29T12:10:31.329Z,6.15
2023-01-29T12:13:06.249Z,7.32
2023-01-29T12:15:34.483Z,7.28
2023-01-29T12:18:09.871Z,7.63
2023-01-29T12:20:42.556Z,8.15
2023-01-29T12:23:26.400Z,7.85
2023-01-29T12:26:01.674Z,8.73
2023-01-29T12:28:43.587Z,8.85
2023-01-29T12:31:30.039Z,8.73
2023-01-29T12:34:06.634Z,7.72
2023-01-29T12:36:39.761Z,7.13
2023-01-29T12:39:11.324Z,7.50
2023-01-29T12:41:46.290Z,6.25
2023-01-29T12:44:19.783Z,7.45
2023-01-29T12:46:52.822Z,6.45
2023-01-29T12:49:26.038Z,9.85
2023-01-29T12:52:00.733Z,7.97
2023-01-29T12:54:40.782Z,8.00
2023-01-29T12:57:15.178Z,6.60
2023-01-29T12:59:48.496Z,8.18
2023-01-29T13:02:30.535Z,7.13
2023-01-29T13:05:03.856Z,7.20
2023-01-29T13:07:34.590Z,7.28
2023-01-29T13:10:09.161Z,7.35
2023-01-29T13:12:40.846Z,7.60
2023-01-29T13:15:22.944Z,7.15
2023-01-29T13:17:55.486Z,7.07
2023-01-29T13:20:29.995Z,5.95
2023-01-29T13:23:07.212Z,5.60
2023-01-29T13:25:36.446Z,8.23
2023-01-29T13:28:04.671Z,5.85
2023-01-29T13:30:35.178Z,6.88
2023-01-29T13:33:11.783Z,7.55
2023-01-29T13:35:43.568Z,7.72
2023-01-29T13:38:26.580Z,6.60
2023-01-29T13:41:00.311Z,6.85
2023-01-29T13:43:32.989Z,6.38
2023-01-29T13:46:09.664Z,8.80
2023-01-29T13:48:43.325Z,7.30
2023-01-29T13:51:16.957Z,6.55
2023-01-29T13:53:52.904Z,6.55
2023-01-29T13:56:44.244Z,7.20
2023-01-29T13:59:26.947Z,6.43
2023-01-29T14:02:20.894Z,5.95
2023-01-29T14:04:48.953Z,6.70
2023-01-29T14:07:50.812Z,5.38
2023-01-29T14:10:21.704Z,6.10
2023-01-29T14:12:53.459Z,7.40
2023-01-29T14:15:32.898Z,6.82
2023-01-29T14:18:17.191Z,5.47
2023-01-29T14:21:18.644Z,6.28
2023-01-29T14:23:49.268Z,5.32
2023-01-29T14:26:28.088Z,6.75
2023-01-29T14:29:08.375Z,7.30
2023-01-29T14:31:44.818Z,6.82
2023-01-29T14:34:22.018Z,6.78
2023-01-29T14:36:55.274Z,6.07
2023-01-29T14:39:31.562Z,7.25
2023-01-29T14:42:00.869Z,6.80
2023-01-29T14:44:50.104Z,6.45
2023-01-29T14:47:20.251Z,5.03
2023-01-29T14:49:53.844Z,6.97
2023-01-29T14:52:26.663Z,4.65
2023-01-29T14:54:58.924Z,8.02
2023-01-29T14:57:30.374Z,7.63
2023-01-29T15:00:05.290Z,7.95
2023-01-29T15:02:40.150Z,7.53
2023-01-29T15:05:12.445Z,6.28
2023-01-29T15:07:45.984Z,7.10
2023-01-29T15:10:22.709Z,7.35
2023-01-29T15:12:58.153Z,7.07
2023-01-29T15:15:36.378Z,8.88
2023-01-29T15:18:09.117Z,7.28
2023-01-29T15:20:38.730Z,9.05
2023-01-29T15:23:26.187Z,6.97
2023-01-29T15:25:58.352Z,6.78
2023-01-29T15:28:27.769Z,7.47
2023-01-29T15:30:59.203Z,9.98
2023-01-29T15:33:28.026Z,8.15
2023-01-29T15:36:07.478Z,7.90
2023-01-29T15:38:36.370Z,8.90
2023-01-29T15:41:17.070Z,8.00
2023-01-29T15:43:46.859Z,8.02
2023-01-29T15:46:23.030Z,8.98
2023-01-29T15:48:55.170Z,8.63
2023-01-29T15:51:26.079Z,7.78
2023-01-29T15:53:56.071Z,9.35
2023-01-29T15:56:28.837Z,9.45
2023-01-29T15:58:59.951Z,8.95
2023-01-29T16:01:30.743Z,9.05
2023-01-29T16:04:02.445Z,7.90
2023-01-29T16:06:34.966Z,7.40
2023-01-29T16:09:03.332Z,8.73
2023-01-29T16:11:32.087Z,10.02
2023-01-29T16:14:00.474Z,6.90
2023-01-29T16:16:30.141Z,8.00
2023-01-29T16:19:00.852Z,8.75
2023-01-29T16:21:33.816Z,9.93
2023-01-29T16:24:06.071Z,9.27
2023-01-29T16:26:36.249Z,7.95
2023-01-29T16:29:06.537Z,10.00
2023-01-29T16:31:37.737Z,9.10
2023-01-29T16:34:10.127Z,9.40
2023-01-29T16:36:38.283Z,7.78
2023-01-29T16:39:15.041Z,7.22
2023-01-29T16:41:42.996Z,10.30
2023-01-29T16:44:33.678Z,8.95
2023-01-29T16:47:13.422Z,8.05
2023-01-29T16:49:47.177Z,8.65
2023-01-29T16:52:21.491Z,9.13
2023-01-29T16:54:49.406Z,8.02
2023-01-29T16:57:20.881Z,9.23
2023-01-29T16:59:50.656Z,8.50
2023-01-29T17:02:26.571Z,7.45
2023-01-29T17:04:59.605Z,8.27
2023-01-29T17:07:28.709Z,7.97
2023-01-29T17:09:59.985Z,8.35
2023-01-29T17:12:30.806Z,8.38
2023-01-29T17:15:00.084Z,9.13
2023-01-29T17:17:34.020Z,8.00
2023-01-29T17:20:13.964Z,9.57
2023-01-29T17:25:14.084Z,9.35
2023-01-29T17:27:43.780Z,9.05
2023-01-29T17:30:15.636Z,10.98
2023-01-29T17:32:47.359Z,8.25
2023-01-29T17:35:17.477Z,9.52
2023-01-29T17:37:45.975Z,9.30
2023-01-29T17:40:25.396Z,9.25
2023-01-29T17:42:53.394Z,9.00
2023-01-29T17:45:21.335Z,10.85
2023-01-29T17:47:50.723Z,8.38
2023-01-29T17:50:23.698Z,10.95
2023-01-29T17:52:52.622Z,10.10
2023-01-29T17:55:20.793Z,9.27
2023-01-29T17:57:51.864Z,9.13
2023-01-29T18:00:23.087Z,9.68
2023-01-29T18:02:53.160Z,9.90
2023-01-29T18:05:21.167Z,9.40
2023-01-29T18:07:51.669Z,10.52
2023-01-29T18:10:22.971Z,10.95
2023-01-29T18:12:50.854Z,9.68
2023-01-29T18:15:19.376Z,9.65
2023-01-29T18:17:48.430Z,7.88
2023-01-29T18:20:25.646Z,7.63
2023-01-29T18:22:54.282Z,7.93
2023-01-29T18:25:24.153Z,9.45
2023-01-29T18:27:52.799Z,7.65
2023-01-29T18:30:21.307Z,8.38
2023-01-29T18:32:50.368Z,7.50
2023-01-29T18:35:18.884Z,9.88
2023-01-29T18:37:48.511Z,7.35
2023-01-29T18:40:17.326Z,10.43
2023-01-29T18:42:46.005Z,8.48
2023-01-29T18:45:15.242Z,9.55
2023-01-29T18:47:43.695Z,8.82
2023-01-29T18:50:12.824Z,9.32
2023-01-29T18:52:41.287Z,8.00
2023-01-29T18:55:11.247Z,7.63
2023-01-29T18:58:24.975Z,11.07
2023-01-29T19:00:28.268Z,7.68
2023-01-29T19:02:56.240Z,8.40
2023-01-29T19:05:25.597Z,8.90
2023-01-29T19:07:53.618Z,8.30
2023-01-29T19:10:22.921Z,8.60
2023-01-29T19:12:50.959Z,8.07
2023-01-29T19:15:21.383Z,9.60
2023-01-29T19:17:49.485Z,8.50
2023-01-29T19:20:17.717Z,8.98
2023-01-29T19:22:45.790Z,8.07
2023-01-29T19:25:13.908Z,7.63
2023-01-29T19:27:43.229Z,7.43
2023-01-29T19:30:12.945Z,9.18
2023-01-29T19:32:41.371Z,8.68
2023-01-29T19:35:09.747Z,7.05
2023-01-29T19:37:37.772Z,7.32
2023-01-29T19:40:08.089Z,8.75
2023-01-29T19:42:37.388Z,6.90
2023-01-29T19:45:08.265Z,7.93
2023-01-29T19:47:39.744Z,7.95
2023-01-29T19:50:08.968Z,7.15
2023-01-29T19:52:52.300Z,7.03
2023-01-29T19:55:21.374Z,6.60
2023-01-29T19:57:49.588Z,7.00
2023-01-29T20:00:20.091Z,5.78
2023-01-29T20:02:48.416Z,8.85
2023-01-29T20:05:20.274Z,7.53
2023-01-29T20:07:49.758Z,6.95
2023-01-29T20:10:18.249Z,8.48
2023-01-29T20:12:47.212Z,6.47
2023-01-29T20:15:15.994Z,7.10
2023-01-29T20:17:45.915Z,8.48
2023-01-29T20:20:14.793Z,6.60
2023-01-29T20:22:45.403Z,7.60
2023-01-29T20:25:14.520Z,7.95
2023-01-29T20:27:42.621Z,7.45
2023-01-29T20:30:11.876Z,6.05
2023-01-29T20:32:39.880Z,6.28
2023-01-29T20:35:10.630Z,6.90
2023-01-29T20:37:38.694Z,7.85
2023-01-29T20:40:07.571Z,6.22
2023-01-29T20:42:35.786Z,6.78
2023-01-29T20:45:04.149Z,7.85
2023-01-29T20:47:32.176Z,6.57
2023-01-29T20:50:04.385Z,6.00
2023-01-29T20:52:33.885Z,7.53
2023-01-29T20:55:01.998Z,6.80
2023-01-29T20:57:31.864Z,6.15
2023-01-29T21:00:00.120Z,7.00
2023-01-29T21:02:28.338Z,7.90
2023-01-29T21:04:56.700Z,6.35
2023-01-29T21:07:24.637Z,6.28
2023-01-29T21:09:53.932Z,7.70
2023-01-29T21:12:22.029Z,6.93
2023-01-29T21:14:50.054Z,6.50
2023-01-29T21:17:17.981Z,6.75
2023-01-29T21:19:46.364Z,6.53
2023-01-29T21:22:14.424Z,8.05
2023-01-29T21:24:42.385Z,8.43
2023-01-29T21:27:11.949Z,5.70
2023-01-29T21:29:39.882Z,5.82
2023-01-29T21:32:09.129Z,5.15
2023-01-29T21:34:37.116Z,6.68
2023-01-29T21:37:05.174Z,7.70
2023-01-29T21:39:33.272Z,6.70
2023-01-29T21:42:18.649Z,7.07
2023-01-29T21:44:47.925Z,5.80
2023-01-29T21:47:15.900Z,6.65
2023-01-29T21:49:45.404Z,6.20
2023-01-29T21:52:15.376Z,6.88
2023-01-29T21:54:48.875Z,5.97
2023-01-29T21:57:17.645Z,6.78
2023-01-29T21:59:51.641Z,6.15
2023-01-29T22:02:22.533Z,6.80
2023-01-29T22:04:52.278Z,7.55
2023-01-29T22:07:20.181Z,5.88
2023-01-29T22:09:51.116Z,6.95
2023-01-29T22:12:19.211Z,6.93
2023-01-29T22:14:48.525Z,5.47
2023-01-29T22:17:20.174Z,8.27
2023-01-29T22:19:48.424Z,7.07
2023-01-29T22:22:18.142Z,7.05
2023-01-29T22:24:46.629Z,7.45
2023-01-29T22:27:15.106Z,7.85
2023-01-29T22:29:43.595Z,8.95
2023-01-29T22:32:13.298Z,6.30
2023-01-29T22:34:41.506Z,7.85
2023-01-29T22:37:09.473Z,9.13
2023-01-29T22:39:37.607Z,8.48
2023-01-29T22:42:05.823Z,7.30
2023-01-29T22:44:33.754Z,8.27
2023-01-29T22:47:01.920Z,8.93
2023-01-29T22:49:32.275Z,7.20
2023-01-29T22:52:12.365Z,8.32
2023-01-29T22:54:41.420Z,6.85
2023-01-29T22:57:11.028Z,7.97
2023-01-29T22:59:39.398Z,7.30
2023-01-29T23:02:08.556Z,7.35
2023-01-29T23:04:38.175Z,8.07
2023-01-29T23:07:07.201Z,8.05
2023-01-29T23:09:35.145Z,9.15
2023-01-29T23:12:03.177Z,8.45
2023-01-29T23:14:31.093Z,8.85
2023-01-29T23:16:59.044Z,8.68
2023-01-29T23:19:27.079Z,7.18
2023-01-29T23:21:56.387Z,8.13
2023-01-29T23:24:24.704Z,8.00
2023-01-29T23:27:10.180Z,7.07
2023-01-29T23:29:38.300Z,9.68
2023-01-29T23:32:07.075Z,8.60
2023-01-29T23:34:35.091Z,7.53
2023-01-29T23:37:04.559Z,8.10
2023-01-29T23:39:32.881Z,7.03
2023-01-29T23:42:01.436Z,7.05
2023-01-29T23:44:29.611Z,8.45
2023-01-29T23:46:58.741Z,7.95
2023-01-29T23:49:26.744Z,8.20
2023-01-29T23:51:54.707Z,7.47
2023-01-29T23:54:24.003Z,8.23
2023-01-29T23:56:51.911Z,6.82
2023-01-29T23:59:20.027Z,9.85
